sensor_id;sensor_type;location;lat;lon;timestamp;temperature;humidity
12837;DHT22;6485;51.472;5.268;2023-04-24T00:00:49;10.60;99.90
12837;DHT22;6485;51.472;5.268;2023-04-24T00:03:17;10.60;99.90
12837;DHT22;6485;51.472;5.268;2023-04-24T00:05:47;10.60;99.90
12837;DHT22;6485;51.472;5.268;2023-04-24T00:08:16;10.60;99.90
12837;DHT22;6485;51.472;5.268;2023-04-24T00:10:44;10.60;99.90
12837;DHT22;6485;51.472;5.268;2023-04-24T00:13:12;10.60;99.90
12837;DHT22;6485;51.472;5.268;2023-04-24T00:15:41;10.60;99.90
12837;DHT22;6485;51.472;5.268;2023-04-24T00:18:09;10.50;99.90
12837;DHT22;6485;51.472;5.268;2023-04-24T00:20:37;10.50;99.90
12837;DHT22;6485;51.472;5.268;2023-04-24T00:23:04;10.50;99.90
12837;DHT22;6485;51.472;5.268;2023-04-24T00:25:32;10.50;99.90
12837;DHT22;6485;51.472;5.268;2023-04-24T00:28:00;10.50;99.90
12837;DHT22;6485;51.472;5.268;2023-04-24T00:30:28;10.50;99.90
12837;DHT22;6485;51.472;5.268;2023-04-24T00:32:58;10.50;99.90
12837;DHT22;6485;51.472;5.268;2023-04-24T00:35:25;10.50;99.90
12837;DHT22;6485;51.472;5.268;2023-04-24T00:37:53;10.40;99.90
12837;DHT22;6485;51.472;5.268;2023-04-24T00:40:21;10.40;99.90
12837;DHT22;6485;51.472;5.268;2023-04-24T00:42:49;10.40;99.90
12837;DHT22;6485;51.472;5.268;2023-04-24T00:45:18;10.40;99.90
12837;DHT22;6485;51.472;5.268;2023-04-24T00:47:45;10.40;99.90
12837;DHT22;6485;51.472;5.268;2023-04-24T00:50:15;10.40;99.90
12837;DHT22;6485;51.472;5.268;2023-04-24T00:52:43;10.40;99.90
12837;DHT22;6485;51.472;5.268;2023-04-24T00:55:11;10.30;99.90
12837;DHT22;6485;51.472;5.268;2023-04-24T00:57:39;10.40;99.90
12837;DHT22;6485;51.472;5.268;2023-04-24T01:00:07;10.30;99.90
12837;DHT22;6485;51.472;5.268;2023-04-24T01:02:38;10.30;99.90
12837;DHT22;6485;51.472;5.268;2023-04-24T01:05:11;10.40;99.90
12837;DHT22;6485;51.472;5.268;2023-04-24T01:07:41;10.30;99.90
12837;DHT22;6485;51.472;5.268;2023-04-24T01:10:11;10.30;99.90
12837;DHT22;6485;51.472;5.268;2023-04-24T01:12:39;10.30;99.90
12837;DHT22;6485;51.472;5.268;2023-04-24T01:15:07;10.20;99.90
12837;DHT22;6485;51.472;5.268;2023-04-24T01:17:35;10.20;99.90
12837;DHT22;6485;51.472;5.268;2023-04-24T01:20:04;10.20;99.90
12837;DHT22;6485;51.472;5.268;2023-04-24T01:22:34;10.20;99.90
12837;DHT22;6485;51.472;5.268;2023-04-24T01:25:03;10.20;99.90
12837;DHT22;6485;51.472;5.268;2023-04-24T01:27:31;10.20;99.90
12837;DHT22;6485;51.472;5.268;2023-04-24T01:29:59;10.20;99.90
12837;DHT22;6485;51.472;5.268;2023-04-24T01:32:28;10.20;99.90
12837;DHT22;6485;51.472;5.268;2023-04-24T01:34:56;10.20;99.90
12837;DHT22;6485;51.472;5.268;2023-04-24T01:37:24;10.20;99.90
12837;DHT22;6485;51.472;5.268;2023-04-24T01:39:54;10.10;99.90
12837;DHT22;6485;51.472;5.268;2023-04-24T01:42:22;10.10;99.90
12837;DHT22;6485;51.472;5.268;2023-04-24T01:44:50;10.10;99.90
12837;DHT22;6485;51.472;5.268;2023-04-24T01:47:18;10.10;99.90
12837;DHT22;6485;51.472;5.268;2023-04-24T01:49:46;10.10;99.90
12837;DHT22;6485;51.472;5.268;2023-04-24T01:52:15;10.10;99.90
12837;DHT22;6485;51.472;5.268;2023-04-24T01:54:44;10.00;99.90
12837;DHT22;6485;51.472;5.268;2023-04-24T01:57:14;10.10;99.90
12837;DHT22;6485;51.472;5.268;2023-04-24T01:59:42;10.00;99.90
12837;DHT22;6485;51.472;5.268;2023-04-24T02:02:10;10.00;99.90
12837;DHT22;6485;51.472;5.268;2023-04-24T02:04:38;10.00;99.90
12837;DHT22;6485;51.472;5.268;2023-04-24T02:07:06;10.00;99.90
12837;DHT22;6485;51.472;5.268;2023-04-24T02:09:34;10.00;99.90
12837;DHT22;6485;51.472;5.268;2023-04-24T02:12:02;10.00;99.90
12837;DHT22;6485;51.472;5.268;2023-04-24T02:14:32;10.00;99.90
12837;DHT22;6485;51.472;5.268;2023-04-24T02:17:00;10.00;99.90
12837;DHT22;6485;51.472;5.268;2023-04-24T02:19:28;9.90;99.90
12837;DHT22;6485;51.472;5.268;2023-04-24T02:21:56;10.00;99.90
12837;DHT22;6485;51.472;5.268;2023-04-24T02:24:24;9.90;99.90
12837;DHT22;6485;51.472;5.268;2023-04-24T02:26:52;9.90;99.90
12837;DHT22;6485;51.472;5.268;2023-04-24T02:29:20;9.90;99.90
12837;DHT22;6485;51.472;5.268;2023-04-24T02:31:49;9.90;99.90
12837;DHT22;6485;51.472;5.268;2023-04-24T02:34:17;9.90;99.90
12837;DHT22;6485;51.472;5.268;2023-04-24T02:36:45;9.90;99.90
12837;DHT22;6485;51.472;5.268;2023-04-24T02:39:13;10.00;99.90
12837;DHT22;6485;51.472;5.268;2023-04-24T02:41:43;9.90;99.90
12837;DHT22;6485;51.472;5.268;2023-04-24T02:44:11;9.90;99.90
12837;DHT22;6485;51.472;5.268;2023-04-24T02:46:39;9.90;99.90
12837;DHT22;6485;51.472;5.268;2023-04-24T02:49:09;9.90;99.90
12837;DHT22;6485;51.472;5.268;2023-04-24T02:51:38;9.90;99.90
12837;DHT22;6485;51.472;5.268;2023-04-24T02:54:07;9.90;99.90
12837;DHT22;6485;51.472;5.268;2023-04-24T02:56:36;9.90;99.90
12837;DHT22;6485;51.472;5.268;2023-04-24T02:59:04;9.90;99.90
12837;DHT22;6485;51.472;5.268;2023-04-24T03:01:32;9.90;99.90
12837;DHT22;6485;51.472;5.268;2023-04-24T03:04:00;9.90;99.90
12837;DHT22;6485;51.472;5.268;2023-04-24T03:06:30;9.90;99.90
12837;DHT22;6485;51.472;5.268;2023-04-24T03:08:59;9.80;99.90
12837;DHT22;6485;51.472;5.268;2023-04-24T03:11:27;9.80;99.90
12837;DHT22;6485;51.472;5.268;2023-04-24T03:13:55;10.00;99.90
12837;DHT22;6485;51.472;5.268;2023-04-24T03:16:23;9.80;99.90
12837;DHT22;6485;51.472;5.268;2023-04-24T03:18:51;9.80;99.90
12837;DHT22;6485;51.472;5.268;2023-04-24T03:21:18;9.80;99.90
12837;DHT22;6485;51.472;5.268;2023-04-24T03:23:48;9.80;99.90
12837;DHT22;6485;51.472;5.268;2023-04-24T03:26:16;9.80;99.90
12837;DHT22;6485;51.472;5.268;2023-04-24T03:28:43;9.80;99.90
12837;DHT22;6485;51.472;5.268;2023-04-24T03:31:11;9.80;99.90
12837;DHT22;6485;51.472;5.268;2023-04-24T03:33:39;9.80;99.90
12837;DHT22;6485;51.472;5.268;2023-04-24T03:36:07;9.80;99.90
12837;DHT22;6485;51.472;5.268;2023-04-24T03:38:35;9.80;99.90
12837;DHT22;6485;51.472;5.268;2023-04-24T03:41:04;9.80;99.90
12837;DHT22;6485;51.472;5.268;2023-04-24T03:43:32;9.80;99.90
12837;DHT22;6485;51.472;5.268;2023-04-24T03:46:01;9.80;99.90
12837;DHT22;6485;51.472;5.268;2023-04-24T03:48:29;9.80;99.90
12837;DHT22;6485;51.472;5.268;2023-04-24T03:50:57;9.80;99.90
12837;DHT22;6485;51.472;5.268;2023-04-24T03:53:25;9.80;99.90
12837;DHT22;6485;51.472;5.268;2023-04-24T03:55:53;9.70;99.90
12837;DHT22;6485;51.472;5.268;2023-04-24T03:58:22;9.80;99.90
12837;DHT22;6485;51.472;5.268;2023-04-24T04:00:50;9.80;99.90
12837;DHT22;6485;51.472;5.268;2023-04-24T04:03:18;9.80;99.90
12837;DHT22;6485;51.472;5.268;2023-04-24T04:05:46;9.80;99.90
12837;DHT22;6485;51.472;5.268;2023-04-24T04:08:14;9.80;99.90
12837;DHT22;6485;51.472;5.268;2023-04-24T04:10:42;9.80;99.90
12837;DHT22;6485;51.472;5.268;2023-04-24T04:13:10;9.70;99.90
12837;DHT22;6485;51.472;5.268;2023-04-24T04:15:39;9.70;99.90
12837;DHT22;6485;51.472;5.268;2023-04-24T04:18:07;9.70;99.90
12837;DHT22;6485;51.472;5.268;2023-04-24T04:20:35;9.70;99.90
12837;DHT22;6485;51.472;5.268;2023-04-24T04:23:03;9.60;99.90
12837;DHT22;6485;51.472;5.268;2023-04-24T04:25:31;9.70;99.90
12837;DHT22;6485;51.472;5.268;2023-04-24T04:27:59;9.70;99.90
12837;DHT22;6485;51.472;5.268;2023-04-24T04:30:29;9.70;99.90
12837;DHT22;6485;51.472;5.268;2023-04-24T04:33:00;9.70;99.90
12837;DHT22;6485;51.472;5.268;2023-04-24T04:35:27;9.60;99.90
12837;DHT22;6485;51.472;5.268;2023-04-24T04:37:55;9.80;99.90
12837;DHT22;6485;51.472;5.268;2023-04-24T04:40:25;9.60;99.90
12837;DHT22;6485;51.472;5.268;2023-04-24T04:42:54;9.60;99.90
12837;DHT22;6485;51.472;5.268;2023-04-24T04:45:22;9.60;99.90
12837;DHT22;6485;51.472;5.268;2023-04-24T04:47:50;9.60;99.90
12837;DHT22;6485;51.472;5.268;2023-04-24T04:50:20;9.70;99.90
12837;DHT22;6485;51.472;5.268;2023-04-24T04:52:49;9.70;99.90
12837;DHT22;6485;51.472;5.268;2023-04-24T04:55:17;9.60;99.90
12837;DHT22;6485;51.472;5.268;2023-04-24T04:57:46;9.70;99.90
12837;DHT22;6485;51.472;5.268;2023-04-24T05:00:14;9.70;99.90
12837;DHT22;6485;51.472;5.268;2023-04-24T05:02:42;9.70;99.90
12837;DHT22;6485;51.472;5.268;2023-04-24T05:05:10;9.70;99.90
12837;DHT22;6485;51.472;5.268;2023-04-24T05:07:39;9.70;99.90
12837;DHT22;6485;51.472;5.268;2023-04-24T05:10:08;9.70;99.90
12837;DHT22;6485;51.472;5.268;2023-04-24T05:12:36;9.70;99.90
12837;DHT22;6485;51.472;5.268;2023-04-24T05:15:04;9.60;99.90
12837;DHT22;6485;51.472;5.268;2023-04-24T05:17:32;9.60;99.90
12837;DHT22;6485;51.472;5.268;2023-04-24T05:20:00;9.60;99.90
12837;DHT22;6485;51.472;5.268;2023-04-24T05:22:29;9.60;99.90
12837;DHT22;6485;51.472;5.268;2023-04-24T05:24:58;9.50;99.90
12837;DHT22;6485;51.472;5.268;2023-04-24T05:27:26;9.50;99.90
12837;DHT22;6485;51.472;5.268;2023-04-24T05:29:54;9.50;99.90
12837;DHT22;6485;51.472;5.268;2023-04-24T05:32:22;9.50;99.90
12837;DHT22;6485;51.472;5.268;2023-04-24T05:34:49;9.20;99.90
12837;DHT22;6485;51.472;5.268;2023-04-24T05:37:17;9.40;99.90
12837;DHT22;6485;51.472;5.268;2023-04-24T05:39:45;9.40;99.90
12837;DHT22;6485;51.472;5.268;2023-04-24T05:42:14;9.40;99.90
12837;DHT22;6485;51.472;5.268;2023-04-24T05:44:42;9.30;99.90
12837;DHT22;6485;51.472;5.268;2023-04-24T05:47:10;9.30;99.90
12837;DHT22;6485;51.472;5.268;2023-04-24T05:49:38;9.30;99.90
12837;DHT22;6485;51.472;5.268;2023-04-24T05:52:06;9.30;99.90
12837;DHT22;6485;51.472;5.268;2023-04-24T05:54:35;9.30;99.90
12837;DHT22;6485;51.472;5.268;2023-04-24T05:57:03;9.30;99.90
12837;DHT22;6485;51.472;5.268;2023-04-24T05:59:36;9.30;99.90
12837;DHT22;6485;51.472;5.268;2023-04-24T06:02:05;9.30;99.90
12837;DHT22;6485;51.472;5.268;2023-04-24T06:04:33;9.30;99.90
12837;DHT22;6485;51.472;5.268;2023-04-24T06:07:02;9.30;99.90
12837;DHT22;6485;51.472;5.268;2023-04-24T06:09:30;9.30;99.90
12837;DHT22;6485;51.472;5.268;2023-04-24T06:11:58;9.20;99.90
12837;DHT22;6485;51.472;5.268;2023-04-24T06:14:26;9.20;99.90
12837;DHT22;6485;51.472;5.268;2023-04-24T06:16:56;9.20;99.90
12837;DHT22;6485;51.472;5.268;2023-04-24T06:19:24;9.20;99.90
12837;DHT22;6485;51.472;5.268;2023-04-24T06:21:52;9.20;99.90
12837;DHT22;6485;51.472;5.268;2023-04-24T06:24:20;9.20;99.90
12837;DHT22;6485;51.472;5.268;2023-04-24T06:26:48;9.20;99.90
12837;DHT22;6485;51.472;5.268;2023-04-24T06:29:16;9.20;99.90
12837;DHT22;6485;51.472;5.268;2023-04-24T06:31:44;9.20;99.90
12837;DHT22;6485;51.472;5.268;2023-04-24T06:34:13;9.20;99.90
12837;DHT22;6485;51.472;5.268;2023-04-24T06:36:41;9.20;99.90
12837;DHT22;6485;51.472;5.268;2023-04-24T06:39:09;9.20;99.90
12837;DHT22;6485;51.472;5.268;2023-04-24T06:41:37;9.20;99.90
12837;DHT22;6485;51.472;5.268;2023-04-24T06:44:06;9.20;99.90
12837;DHT22;6485;51.472;5.268;2023-04-24T06:46:34;9.20;99.90
12837;DHT22;6485;51.472;5.268;2023-04-24T06:49:04;9.20;99.90
12837;DHT22;6485;51.472;5.268;2023-04-24T06:51:33;9.20;99.90
12837;DHT22;6485;51.472;5.268;2023-04-24T06:54:01;9.10;99.90
12837;DHT22;6485;51.472;5.268;2023-04-24T06:56:29;9.20;99.90
12837;DHT22;6485;51.472;5.268;2023-04-24T06:58:57;9.10;99.90
12837;DHT22;6485;51.472;5.268;2023-04-24T07:01:25;9.10;99.90
12837;DHT22;6485;51.472;5.268;2023-04-24T07:03:53;9.20;99.90
12837;DHT22;6485;51.472;5.268;2023-04-24T07:06:21;9.20;99.90
12837;DHT22;6485;51.472;5.268;2023-04-24T07:08:52;9.10;99.90
12837;DHT22;6485;51.472;5.268;2023-04-24T07:11:20;9.20;99.90
12837;DHT22;6485;51.472;5.268;2023-04-24T07:13:48;9.20;99.90
12837;DHT22;6485;51.472;5.268;2023-04-24T07:16:16;9.20;99.90
12837;DHT22;6485;51.472;5.268;2023-04-24T07:18:44;9.20;99.90
12837;DHT22;6485;51.472;5.268;2023-04-24T07:21:12;9.20;99.90
12837;DHT22;6485;51.472;5.268;2023-04-24T07:23:40;9.20;99.90
12837;DHT22;6485;51.472;5.268;2023-04-24T07:26:10;9.10;99.90
12837;DHT22;6485;51.472;5.268;2023-04-24T07:28:38;9.10;99.90
12837;DHT22;6485;51.472;5.268;2023-04-24T07:31:06;9.00;99.90
12837;DHT22;6485;51.472;5.268;2023-04-24T07:33:33;9.00;99.90
12837;DHT22;6485;51.472;5.268;2023-04-24T07:36:03;9.00;99.90
12837;DHT22;6485;51.472;5.268;2023-04-24T07:38:31;9.00;99.90
12837;DHT22;6485;51.472;5.268;2023-04-24T07:40:59;9.00;99.90
12837;DHT22;6485;51.472;5.268;2023-04-24T07:43:28;9.00;99.90
12837;DHT22;6485;51.472;5.268;2023-04-24T07:45:56;9.00;99.90
12837;DHT22;6485;51.472;5.268;2023-04-24T07:48:24;9.10;99.90
12837;DHT22;6485;51.472;5.268;2023-04-24T07:50:53;9.00;99.90
12837;DHT22;6485;51.472;5.268;2023-04-24T07:53:20;9.10;99.90
12837;DHT22;6485;51.472;5.268;2023-04-24T07:55:48;9.10;99.90
12837;DHT22;6485;51.472;5.268;2023-04-24T07:58:16;9.20;99.90
12837;DHT22;6485;51.472;5.268;2023-04-24T08:00:46;9.20;99.90
12837;DHT22;6485;51.472;5.268;2023-04-24T08:03:13;9.20;99.90
12837;DHT22;6485;51.472;5.268;2023-04-24T08:05:45;9.20;99.90
12837;DHT22;6485;51.472;5.268;2023-04-24T08:08:13;9.20;99.90
12837;DHT22;6485;51.472;5.268;2023-04-24T08:10:41;9.20;99.90
12837;DHT22;6485;51.472;5.268;2023-04-24T08:13:09;9.20;99.90
12837;DHT22;6485;51.472;5.268;2023-04-24T08:15:37;9.20;99.90
12837;DHT22;6485;51.472;5.268;2023-04-24T08:18:07;9.20;99.90
12837;DHT22;6485;51.472;5.268;2023-04-24T08:20:35;9.10;99.90
12837;DHT22;6485;51.472;5.268;2023-04-24T08:23:03;9.10;99.90
12837;DHT22;6485;51.472;5.268;2023-04-24T08:25:31;9.10;99.90
12837;DHT22;6485;51.472;5.268;2023-04-24T08:27:59;9.20;99.90
12837;DHT22;6485;51.472;5.268;2023-04-24T08:30:29;9.20;99.90
12837;DHT22;6485;51.472;5.268;2023-04-24T08:32:57;9.30;99.90
12837;DHT22;6485;51.472;5.268;2023-04-24T08:35:27;9.30;99.90
12837;DHT22;6485;51.472;5.268;2023-04-24T08:37:54;9.40;99.90
12837;DHT22;6485;51.472;5.268;2023-04-24T08:40:26;9.30;99.90
12837;DHT22;6485;51.472;5.268;2023-04-24T08:42:55;9.50;99.90
12837;DHT22;6485;51.472;5.268;2023-04-24T08:45:23;9.60;99.90
12837;DHT22;6485;51.472;5.268;2023-04-24T08:47:52;9.70;99.90
12837;DHT22;6485;51.472;5.268;2023-04-24T08:50:21;9.80;99.90
12837;DHT22;6485;51.472;5.268;2023-04-24T08:52:50;9.80;99.90
12837;DHT22;6485;51.472;5.268;2023-04-24T08:55:20;9.80;99.90
12837;DHT22;6485;51.472;5.268;2023-04-24T08:57:50;9.70;99.90
12837;DHT22;6485;51.472;5.268;2023-04-24T09:00:18;9.30;99.90
12837;DHT22;6485;51.472;5.268;2023-04-24T09:02:47;9.20;99.90
12837;DHT22;6485;51.472;5.268;2023-04-24T09:05:16;9.20;99.90
12837;DHT22;6485;51.472;5.268;2023-04-24T09:07:45;9.20;99.90
12837;DHT22;6485;51.472;5.268;2023-04-24T09:10:18;9.20;99.90
12837;DHT22;6485;51.472;5.268;2023-04-24T09:12:47;9.40;99.90
12837;DHT22;6485;51.472;5.268;2023-04-24T09:15:15;9.50;99.90
12837;DHT22;6485;51.472;5.268;2023-04-24T09:17:43;9.70;99.90
12837;DHT22;6485;51.472;5.268;2023-04-24T09:20:11;9.80;99.90
12837;DHT22;6485;51.472;5.268;2023-04-24T09:22:39;9.70;99.90
12837;DHT22;6485;51.472;5.268;2023-04-24T09:25:07;9.80;99.90
12837;DHT22;6485;51.472;5.268;2023-04-24T09:27:42;9.80;99.90
12837;DHT22;6485;51.472;5.268;2023-04-24T09:30:11;9.80;99.90
12837;DHT22;6485;51.472;5.268;2023-04-24T09:32:40;9.70;99.90
12837;DHT22;6485;51.472;5.268;2023-04-24T09:35:09;9.50;99.90
12837;DHT22;6485;51.472;5.268;2023-04-24T09:37:37;9.50;99.90
12837;DHT22;6485;51.472;5.268;2023-04-24T09:40:09;9.60;99.90
12837;DHT22;6485;51.472;5.268;2023-04-24T09:42:38;9.50;99.90
12837;DHT22;6485;51.472;5.268;2023-04-24T09:45:10;9.60;99.90
12837;DHT22;6485;51.472;5.268;2023-04-24T09:47:41;9.70;99.90
12837;DHT22;6485;51.472;5.268;2023-04-24T09:50:13;9.90;99.90
12837;DHT22;6485;51.472;5.268;2023-04-24T09:52:43;10.00;99.90
12837;DHT22;6485;51.472;5.268;2023-04-24T09:55:12;10.00;99.90
12837;DHT22;6485;51.472;5.268;2023-04-24T09:57:52;10.40;99.90
12837;DHT22;6485;51.472;5.268;2023-04-24T10:00:22;10.30;99.90
12837;DHT22;6485;51.472;5.268;2023-04-24T10:02:54;10.30;99.90
12837;DHT22;6485;51.472;5.268;2023-04-24T10:05:23;10.40;99.90
12837;DHT22;6485;51.472;5.268;2023-04-24T10:07:51;10.40;99.90
12837;DHT22;6485;51.472;5.268;2023-04-24T10:10:19;10.40;99.90
12837;DHT22;6485;51.472;5.268;2023-04-24T10:12:47;10.40;99.90
12837;DHT22;6485;51.472;5.268;2023-04-24T10:15:15;10.30;99.90
12837;DHT22;6485;51.472;5.268;2023-04-24T10:17:48;10.30;99.90
12837;DHT22;6485;51.472;5.268;2023-04-24T10:20:20;10.30;99.90
12837;DHT22;6485;51.472;5.268;2023-04-24T10:22:49;10.30;99.90
12837;DHT22;6485;51.472;5.268;2023-04-24T10:25:18;10.30;99.90
12837;DHT22;6485;51.472;5.268;2023-04-24T10:27:46;10.30;99.90
12837;DHT22;6485;51.472;5.268;2023-04-24T10:30:15;10.30;99.90
12837;DHT22;6485;51.472;5.268;2023-04-24T10:32:43;10.20;99.90
12837;DHT22;6485;51.472;5.268;2023-04-24T10:35:13;10.10;99.90
12837;DHT22;6485;51.472;5.268;2023-04-24T10:37:43;10.10;99.90
12837;DHT22;6485;51.472;5.268;2023-04-24T10:40:16;10.20;99.90
12837;DHT22;6485;51.472;5.268;2023-04-24T10:42:46;10.30;99.90
12837;DHT22;6485;51.472;5.268;2023-04-24T10:45:18;10.20;99.90
12837;DHT22;6485;51.472;5.268;2023-04-24T10:47:51;10.40;99.90
12837;DHT22;6485;51.472;5.268;2023-04-24T10:50:20;10.60;99.90
12837;DHT22;6485;51.472;5.268;2023-04-24T10:52:49;10.70;99.90
12837;DHT22;6485;51.472;5.268;2023-04-24T10:55:31;10.70;99.90
12837;DHT22;6485;51.472;5.268;2023-04-24T10:58:06;10.60;99.90
12837;DHT22;6485;51.472;5.268;2023-04-24T11:00:36;10.70;99.90
12837;DHT22;6485;51.472;5.268;2023-04-24T11:03:04;10.80;99.90
12837;DHT22;6485;51.472;5.268;2023-04-24T11:05:53;10.80;99.90
12837;DHT22;6485;51.472;5.268;2023-04-24T11:08:22;10.80;99.90
12837;DHT22;6485;51.472;5.268;2023-04-24T11:10:54;10.70;99.90
12837;DHT22;6485;51.472;5.268;2023-04-24T11:13:23;10.60;99.90
12837;DHT22;6485;51.472;5.268;2023-04-24T11:18:38;10.50;99.90
12837;DHT22;6485;51.472;5.268;2023-04-24T11:21:11;10.40;99.90
12837;DHT22;6485;51.472;5.268;2023-04-24T11:23:39;10.40;99.90
12837;DHT22;6485;51.472;5.268;2023-04-24T11:26:10;10.50;99.90
12837;DHT22;6485;51.472;5.268;2023-04-24T11:28:43;10.50;99.90
12837;DHT22;6485;51.472;5.268;2023-04-24T11:34:02;10.80;99.90
12837;DHT22;6485;51.472;5.268;2023-04-24T11:36:34;10.80;99.90
12837;DHT22;6485;51.472;5.268;2023-04-24T11:39:02;10.70;99.90
12837;DHT22;6485;51.472;5.268;2023-04-24T11:41:30;10.60;99.90
12837;DHT22;6485;51.472;5.268;2023-04-24T11:43:58;10.60;99.90
12837;DHT22;6485;51.472;5.268;2023-04-24T11:46:27;10.60;99.90
12837;DHT22;6485;51.472;5.268;2023-04-24T11:48:55;10.80;99.90
12837;DHT22;6485;51.472;5.268;2023-04-24T11:51:23;10.90;99.90
12837;DHT22;6485;51.472;5.268;2023-04-24T11:54:00;11.00;99.90
12837;DHT22;6485;51.472;5.268;2023-04-24T11:56:30;11.20;99.90
12837;DHT22;6485;51.472;5.268;2023-04-24T11:58:58;11.20;99.90
12837;DHT22;6485;51.472;5.268;2023-04-24T12:01:26;11.30;99.90
12837;DHT22;6485;51.472;5.268;2023-04-24T12:03:59;11.40;99.90
12837;DHT22;6485;51.472;5.268;2023-04-24T12:06:27;11.50;99.90
12837;DHT22;6485;51.472;5.268;2023-04-24T12:08:57;11.40;99.90
12837;DHT22;6485;51.472;5.268;2023-04-24T12:11:38;11.40;99.90
12837;DHT22;6485;51.472;5.268;2023-04-24T12:14:19;11.30;99.90
12837;DHT22;6485;51.472;5.268;2023-04-24T12:16:47;11.10;99.90
12837;DHT22;6485;51.472;5.268;2023-04-24T12:19:17;11.30;99.90
12837;DHT22;6485;51.472;5.268;2023-04-24T12:21:58;11.20;99.90
12837;DHT22;6485;51.472;5.268;2023-04-24T12:24:26;11.30;99.90
12837;DHT22;6485;51.472;5.268;2023-04-24T12:26:55;11.30;99.90
12837;DHT22;6485;51.472;5.268;2023-04-24T12:29:23;11.40;99.90
12837;DHT22;6485;51.472;5.268;2023-04-24T12:31:51;11.20;99.90
12837;DHT22;6485;51.472;5.268;2023-04-24T12:34:20;11.20;99.90
12837;DHT22;6485;51.472;5.268;2023-04-24T12:36:48;11.20;99.90
12837;DHT22;6485;51.472;5.268;2023-04-24T12:39:16;11.20;99.90
12837;DHT22;6485;51.472;5.268;2023-04-24T12:41:50;11.00;99.90
12837;DHT22;6485;51.472;5.268;2023-04-24T12:44:20;11.00;99.90
12837;DHT22;6485;51.472;5.268;2023-04-24T12:46:48;11.20;99.90
12837;DHT22;6485;51.472;5.268;2023-04-24T12:49:17;11.00;99.90
12837;DHT22;6485;51.472;5.268;2023-04-24T12:51:44;11.20;99.90
12837;DHT22;6485;51.472;5.268;2023-04-24T12:54:12;11.50;99.90
12837;DHT22;6485;51.472;5.268;2023-04-24T12:56:40;11.60;99.90
12837;DHT22;6485;51.472;5.268;2023-04-24T12:59:08;11.70;99.90
12837;DHT22;6485;51.472;5.268;2023-04-24T13:01:37;11.60;99.90
12837;DHT22;6485;51.472;5.268;2023-04-24T13:04:05;11.40;99.90
12837;DHT22;6485;51.472;5.268;2023-04-24T13:06:34;11.20;99.90
12837;DHT22;6485;51.472;5.268;2023-04-24T13:09:01;11.00;99.90
12837;DHT22;6485;51.472;5.268;2023-04-24T13:11:30;10.60;99.90
12837;DHT22;6485;51.472;5.268;2023-04-24T13:13:57;10.30;99.90
12837;DHT22;6485;51.472;5.268;2023-04-24T13:16:25;10.40;99.90
12837;DHT22;6485;51.472;5.268;2023-04-24T13:18:54;10.30;99.90
12837;DHT22;6485;51.472;5.268;2023-04-24T13:21:22;10.40;99.90
12837;DHT22;6485;51.472;5.268;2023-04-24T13:23:50;10.30;99.90
12837;DHT22;6485;51.472;5.268;2023-04-24T13:26:18;9.90;99.90
12837;DHT22;6485;51.472;5.268;2023-04-24T13:28:46;9.80;99.90
12837;DHT22;6485;51.472;5.268;2023-04-24T13:31:14;9.80;99.90
12837;DHT22;6485;51.472;5.268;2023-04-24T13:33:42;9.80;99.90
12837;DHT22;6485;51.472;5.268;2023-04-24T13:36:12;9.90;99.90
12837;DHT22;6485;51.472;5.268;2023-04-24T13:38:40;10.00;99.90
12837;DHT22;6485;51.472;5.268;2023-04-24T13:41:07;10.30;99.90
12837;DHT22;6485;51.472;5.268;2023-04-24T13:43:36;10.30;99.90
12837;DHT22;6485;51.472;5.268;2023-04-24T13:46:04;10.40;99.90
12837;DHT22;6485;51.472;5.268;2023-04-24T13:48:31;10.20;99.90
12837;DHT22;6485;51.472;5.268;2023-04-24T13:50:59;10.30;99.90
12837;DHT22;6485;51.472;5.268;2023-04-24T13:53:29;10.30;99.90
12837;DHT22;6485;51.472;5.268;2023-04-24T13:55:57;10.40;99.90
12837;DHT22;6485;51.472;5.268;2023-04-24T13:58:25;10.40;99.90
12837;DHT22;6485;51.472;5.268;2023-04-24T14:00:53;10.50;99.90
12837;DHT22;6485;51.472;5.268;2023-04-24T14:03:21;10.70;99.90
12837;DHT22;6485;51.472;5.268;2023-04-24T14:05:49;10.60;99.90
12837;DHT22;6485;51.472;5.268;2023-04-24T14:08:17;10.40;99.90
12837;DHT22;6485;51.472;5.268;2023-04-24T14:10:46;9.90;99.90
12837;DHT22;6485;51.472;5.268;2023-04-24T14:13:14;9.70;99.90
12837;DHT22;6485;51.472;5.268;2023-04-24T14:15:42;9.70;99.90
12837;DHT22;6485;51.472;5.268;2023-04-24T14:18:10;9.80;99.90
12837;DHT22;6485;51.472;5.268;2023-04-24T14:20:38;9.80;99.90
12837;DHT22;6485;51.472;5.268;2023-04-24T14:23:06;10.00;99.90
12837;DHT22;6485;51.472;5.268;2023-04-24T14:25:34;10.10;99.90
12837;DHT22;6485;51.472;5.268;2023-04-24T14:28:03;10.30;99.90
12837;DHT22;6485;51.472;5.268;2023-04-24T14:30:33;10.30;99.90
12837;DHT22;6485;51.472;5.268;2023-04-24T14:33:01;10.50;99.90
12837;DHT22;6485;51.472;5.268;2023-04-24T14:35:29;10.50;99.90
12837;DHT22;6485;51.472;5.268;2023-04-24T14:37:57;10.60;99.90
12837;DHT22;6485;51.472;5.268;2023-04-24T14:40:26;10.60;99.90
12837;DHT22;6485;51.472;5.268;2023-04-24T14:43:15;10.70;99.90
12837;DHT22;6485;51.472;5.268;2023-04-24T14:45:43;10.80;99.90
12837;DHT22;6485;51.472;5.268;2023-04-24T14:48:11;11.00;99.90
12837;DHT22;6485;51.472;5.268;2023-04-24T14:50:39;11.00;99.90
12837;DHT22;6485;51.472;5.268;2023-04-24T14:53:07;11.00;99.90
12837;DHT22;6485;51.472;5.268;2023-04-24T14:55:34;11.00;99.90
12837;DHT22;6485;51.472;5.268;2023-04-24T14:58:03;11.00;99.90
12837;DHT22;6485;51.472;5.268;2023-04-24T15:00:32;11.00;99.90
12837;DHT22;6485;51.472;5.268;2023-04-24T15:03:00;11.20;99.90
12837;DHT22;6485;51.472;5.268;2023-04-24T15:05:28;11.10;99.90
12837;DHT22;6485;51.472;5.268;2023-04-24T15:07:57;11.20;99.90
12837;DHT22;6485;51.472;5.268;2023-04-24T15:10:25;11.20;99.90
12837;DHT22;6485;51.472;5.268;2023-04-24T15:12:53;11.20;99.90
12837;DHT22;6485;51.472;5.268;2023-04-24T15:15:21;11.10;99.90
12837;DHT22;6485;51.472;5.268;2023-04-24T15:17:50;11.30;99.90
12837;DHT22;6485;51.472;5.268;2023-04-24T15:20:18;11.10;99.90
12837;DHT22;6485;51.472;5.268;2023-04-24T15:22:46;11.00;99.90
12837;DHT22;6485;51.472;5.268;2023-04-24T15:25:14;11.00;99.90
12837;DHT22;6485;51.472;5.268;2023-04-24T15:27:42;11.00;99.90
12837;DHT22;6485;51.472;5.268;2023-04-24T15:30:11;11.00;99.90
12837;DHT22;6485;51.472;5.268;2023-04-24T15:32:39;11.20;99.90
12837;DHT22;6485;51.472;5.268;2023-04-24T15:35:09;11.30;99.90
12837;DHT22;6485;51.472;5.268;2023-04-24T15:37:37;11.20;99.90
12837;DHT22;6485;51.472;5.268;2023-04-24T15:40:06;11.20;99.90
12837;DHT22;6485;51.472;5.268;2023-04-24T15:42:34;11.30;99.90
12837;DHT22;6485;51.472;5.268;2023-04-24T15:45:02;11.30;99.90
12837;DHT22;6485;51.472;5.268;2023-04-24T15:47:31;11.20;99.90
12837;DHT22;6485;51.472;5.268;2023-04-24T15:49:59;11.10;99.90
12837;DHT22;6485;51.472;5.268;2023-04-24T15:52:28;11.10;99.90
12837;DHT22;6485;51.472;5.268;2023-04-24T15:54:56;11.10;99.90
12837;DHT22;6485;51.472;5.268;2023-04-24T15:57:24;11.10;99.90
12837;DHT22;6485;51.472;5.268;2023-04-24T15:59:52;11.00;99.90
12837;DHT22;6485;51.472;5.268;2023-04-24T16:02:21;11.00;99.90
12837;DHT22;6485;51.472;5.268;2023-04-24T16:04:49;11.00;99.90
12837;DHT22;6485;51.472;5.268;2023-04-24T16:07:18;11.00;99.90
12837;DHT22;6485;51.472;5.268;2023-04-24T16:09:47;11.20;99.90